createdAt,value
2018-02-24T00:00:25.189Z,18.20
2018-02-24T00:00:56.945Z,18.20
2018-02-24T00:01:28.692Z,18.20
2018-02-24T00:02:00.443Z,18.20
2018-02-24T00:02:32.197Z,18.20
2018-02-24T00:03:04.732Z,18.20
2018-02-24T00:03:36.501Z,18.20
2018-02-24T00:04:09.010Z,18.20
2018-02-24T00:04:40.759Z,18.20
2018-02-24T00:05:12.546Z,18.20
2018-02-24T00:05:44.272Z,18.20
2018-02-24T00:06:16.013Z,18.20
2018-02-24T00:06:47.772Z,18.20
2018-02-24T00:07:19.519Z,18.20
2018-02-24T00:07:51.265Z,18.20
2018-02-24T00:08:23.016Z,18.20
2018-02-24T00:08:54.752Z,18.20
2018-02-24T00:09:26.677Z,18.20
2018-02-24T00:09:58.420Z,18.20
2018-02-24T00:10:30.170Z,18.20
2018-02-24T00:11:01.907Z,18.20
2018-02-24T00:11:33.660Z,18.20
2018-02-24T00:12:05.423Z,18.20
2018-02-24T00:12:37.140Z,18.20
2018-02-24T00:13:08.907Z,18.20
2018-02-24T00:13:40.649Z,18.20
2018-02-24T00:14:12.383Z,18.20
2018-02-24T00:14:44.154Z,18.20
2018-02-24T00:15:15.901Z,18.20
2018-02-24T00:15:48.404Z,18.20
2018-02-24T00:16:20.149Z,18.20
2018-02-24T00:16:51.872Z,18.20
2018-02-24T00:17:23.594Z,18.20
2018-02-24T00:17:56.112Z,18.20
2018-02-24T00:18:27.841Z,18.20
2018-02-24T00:18:59.582Z,18.20
2018-02-24T00:19:31.333Z,18.20
2018-02-24T00:20:03.076Z,18.20
2018-02-24T00:20:34.819Z,18.20
2018-02-24T00:21:06.565Z,18.20
2018-02-24T00:21:38.313Z,18.20
2018-02-24T00:22:10.052Z,18.20
2018-02-24T00:22:41.875Z,18.20
2018-02-24T00:23:13.600Z,18.20
2018-02-24T00:23:46.109Z,18.20
2018-02-24T00:24:17.851Z,18.20
2018-02-24T00:24:49.647Z,18.20
2018-02-24T00:25:22.150Z,18.20
2018-02-24T00:25:53.882Z,18.20
2018-02-24T00:26:25.623Z,18.20
2018-02-24T00:26:57.386Z,18.20
2018-02-24T00:27:29.112Z,18.20
2018-02-24T00:28:00.858Z,18.20
2018-02-24T00:28:33.341Z,18.20
2018-02-24T00:29:05.091Z,18.20
2018-02-24T00:29:36.815Z,18.20
2018-02-24T00:30:08.566Z,18.20
2018-02-24T00:30:40.308Z,18.20
2018-02-24T00:31:12.076Z,18.20
2018-02-24T00:31:43.817Z,18.20
2018-02-24T00:32:15.571Z,18.20
2018-02-24T00:32:47.302Z,18.20
2018-02-24T00:33:19.041Z,18.20
2018-02-24T00:33:50.788Z,18.20
2018-02-24T00:34:22.526Z,18.20
2018-02-24T00:34:54.369Z,18.20
2018-02-24T00:35:26.152Z,18.20
2018-02-24T00:35:57.951Z,18.20
2018-02-24T00:36:29.683Z,18.20
2018-02-24T00:37:01.419Z,18.10
2018-02-24T00:37:33.912Z,18.20
2018-02-24T00:38:05.658Z,18.20
2018-02-24T00:38:37.384Z,18.20
2018-02-24T00:39:09.121Z,18.20
2018-02-24T00:39:40.847Z,18.20
2018-02-24T00:40:13.392Z,18.20
2018-02-24T00:40:45.140Z,18.20
2018-02-24T00:41:16.897Z,18.20
2018-02-24T00:41:49.437Z,18.20
2018-02-24T00:42:21.310Z,18.20
2018-02-24T00:42:53.029Z,18.20
2018-02-24T00:43:24.775Z,18.20
2018-02-24T00:43:56.517Z,18.20
2018-02-24T00:44:28.268Z,18.20
2018-02-24T00:45:00.034Z,18.20
2018-02-24T00:45:31.748Z,18.20
2018-02-24T00:46:03.481Z,18.20
2018-02-24T00:46:35.274Z,18.20
2018-02-24T00:47:06.993Z,18.20
2018-02-24T00:47:38.733Z,18.20
2018-02-24T00:48:10.492Z,18.20
2018-02-24T00:48:42.991Z,18.20
2018-02-24T00:49:14.724Z,18.20
2018-02-24T00:49:46.458Z,18.20
2018-02-24T00:50:18.980Z,18.10
2018-02-24T00:50:50.857Z,18.20
2018-02-24T00:51:22.591Z,18.20
2018-02-24T00:51:54.342Z,18.20
2018-02-24T00:52:26.872Z,18.20
2018-02-24T00:52:58.657Z,18.20
2018-02-24T00:53:30.341Z,18.20
2018-02-24T00:54:02.077Z,18.20
2018-02-24T00:54:33.814Z,18.20
2018-02-24T00:55:05.556Z,18.20
2018-02-24T00:55:37.329Z,18.20
2018-02-24T00:56:09.052Z,18.20
2018-02-24T00:56:40.803Z,18.20
2018-02-24T00:57:12.537Z,18.10
2018-02-24T00:57:44.284Z,18.20
2018-02-24T00:58:16.045Z,18.20
2018-02-24T00:58:47.805Z,18.20
2018-02-24T00:59:19.532Z,18.20
2018-02-24T00:59:51.297Z,18.20
2018-02-24T01:00:23.012Z,18.20
2018-02-24T01:00:54.752Z,18.20
2018-02-24T01:01:26.501Z,18.20
2018-02-24T01:01:58.252Z,18.20
2018-02-24T01:02:30.828Z,18.20
2018-02-24T01:03:02.588Z,18.20
2018-02-24T01:03:34.304Z,18.20
2018-02-24T01:04:06.046Z,18.20
2018-02-24T01:04:37.797Z,18.20
2018-02-24T01:05:09.529Z,18.20
2018-02-24T01:05:41.271Z,18.20
2018-02-24T01:06:13.022Z,18.20
2018-02-24T01:06:44.836Z,18.20
2018-02-24T01:07:17.361Z,18.20
2018-02-24T01:07:49.153Z,18.20
2018-02-24T01:08:20.857Z,18.20
2018-02-24T01:08:52.595Z,18.20
2018-02-24T01:09:24.338Z,18.20
2018-02-24T01:09:56.083Z,18.20
2018-02-24T01:10:27.826Z,18.20
2018-02-24T01:10:59.572Z,18.10
2018-02-24T01:11:31.301Z,18.20
2018-02-24T01:12:03.040Z,18.20
2018-02-24T01:12:34.791Z,18.20
2018-02-24T01:13:06.533Z,18.20
2018-02-24T01:13:38.260Z,18.20
2018-02-24T01:14:10.001Z,18.20
2018-02-24T01:14:41.750Z,18.20
2018-02-24T01:15:13.487Z,18.20
2018-02-24T01:15:45.230Z,18.20
2018-02-24T01:16:16.964Z,18.20
2018-02-24T01:16:48.696Z,18.20
2018-02-24T01:17:21.217Z,18.20
2018-02-24T01:17:52.945Z,18.20
2018-02-24T01:18:24.693Z,18.20
2018-02-24T01:18:56.420Z,18.20
2018-02-24T01:19:28.149Z,18.20
2018-02-24T01:19:59.891Z,18.20
2018-02-24T01:20:31.640Z,18.10
2018-02-24T01:21:03.373Z,18.20
2018-02-24T01:21:35.877Z,18.20
2018-02-24T01:22:07.613Z,18.20
2018-02-24T01:22:39.364Z,18.20
2018-02-24T01:23:11.112Z,18.20
2018-02-24T01:23:42.833Z,18.20
2018-02-24T01:24:14.626Z,18.10
2018-02-24T01:24:46.383Z,18.10
2018-02-24T01:25:18.159Z,18.10
2018-02-24T01:25:49.936Z,18.10
2018-02-24T01:26:21.658Z,18.10
2018-02-24T01:26:53.400Z,18.10
2018-02-24T01:27:25.131Z,18.10
2018-02-24T01:27:56.876Z,18.10
2018-02-24T01:28:28.643Z,18.10
2018-02-24T01:29:00.356Z,18.10
2018-02-24T01:29:32.114Z,18.10
2018-02-24T01:30:03.851Z,18.10
2018-02-24T01:30:35.600Z,18.20
2018-02-24T01:31:07.398Z,18.20
2018-02-24T01:31:39.138Z,18.20
2018-02-24T01:32:10.919Z,18.20
2018-02-24T01:32:43.422Z,18.20
2018-02-24T01:33:15.264Z,18.20
2018-02-24T01:33:47.013Z,18.20
2018-02-24T01:34:18.736Z,18.10
2018-02-24T01:34:50.492Z,18.20
2018-02-24T01:35:22.219Z,18.20
2018-02-24T01:35:53.947Z,18.20
2018-02-24T01:36:26.472Z,18.20
2018-02-24T01:36:58.220Z,18.20
2018-02-24T01:37:29.952Z,18.20
2018-02-24T01:38:01.677Z,18.20
2018-02-24T01:38:33.406Z,18.20
2018-02-24T01:39:05.144Z,18.20
2018-02-24T01:39:36.887Z,18.20
2018-02-24T01:40:08.638Z,18.20
2018-02-24T01:40:40.379Z,18.20
2018-02-24T01:41:12.117Z,18.20
2018-02-24T01:41:44.616Z,18.20
2018-02-24T01:42:16.353Z,17.80
2018-02-24T01:42:48.095Z,18.20
2018-02-24T01:43:19.832Z,18.20
2018-02-24T01:43:51.571Z,18.20
2018-02-24T01:44:23.303Z,18.20
2018-02-24T01:44:55.069Z,18.20
2018-02-24T01:45:26.803Z,18.20
2018-02-24T01:45:58.538Z,18.20
2018-02-24T01:46:30.314Z,18.20
2018-02-24T01:47:02.040Z,18.20
2018-02-24T01:47:33.785Z,18.20
2018-02-24T01:48:05.523Z,18.20
2018-02-24T01:48:37.259Z,18.10
2018-02-24T01:49:09.126Z,18.20
2018-02-24T01:49:40.863Z,18.20
2018-02-24T01:50:12.596Z,18.20
2018-02-24T01:50:44.343Z,18.20
2018-02-24T01:51:16.120Z,18.20
2018-02-24T01:51:47.884Z,18.20
2018-02-24T01:52:19.617Z,18.20
2018-02-24T01:52:51.396Z,18.10
2018-02-24T01:53:23.149Z,18.20
2018-02-24T01:53:54.839Z,18.10
2018-02-24T01:54:26.574Z,18.20
2018-02-24T01:54:58.324Z,18.20
2018-02-24T01:55:30.066Z,18.20
2018-02-24T01:56:01.796Z,18.20
2018-02-24T01:56:33.531Z,18.20
2018-02-24T01:57:05.306Z,18.20
2018-02-24T01:57:37.036Z,18.20
2018-02-24T01:58:08.897Z,18.10
2018-02-24T01:58:40.620Z,18.20
2018-02-24T01:59:12.376Z,18.20
2018-02-24T01:59:44.109Z,18.20
2018-02-24T02:00:15.920Z,18.20
2018-02-24T02:00:47.645Z,18.20
2018-02-24T02:01:19.388Z,18.20
2018-02-24T02:01:51.204Z,18.20
2018-02-24T02:02:22.903Z,18.20
2018-02-24T02:02:55.415Z,18.10
2018-02-24T02:03:27.177Z,18.20
2018-02-24T02:03:58.983Z,18.20
2018-02-24T02:04:30.718Z,18.20
2018-02-24T02:05:02.467Z,18.10
2018-02-24T02:05:34.203Z,18.20
2018-02-24T02:06:05.945Z,18.20
2018-02-24T02:06:38.461Z,18.20
2018-02-24T02:07:10.190Z,18.20
2018-02-24T02:07:41.908Z,18.10
2018-02-24T02:08:13.655Z,18.20
2018-02-24T02:08:45.393Z,18.20
2018-02-24T02:09:17.129Z,18.20
2018-02-24T02:09:49.658Z,18.20
2018-02-24T02:10:21.384Z,18.20
2018-02-24T02:10:53.194Z,18.10
2018-02-24T02:11:24.943Z,18.20
2018-02-24T02:11:56.679Z,18.20
2018-02-24T02:12:28.443Z,18.20
2018-02-24T02:13:00.230Z,18.20
2018-02-24T02:13:31.933Z,18.20
2018-02-24T02:14:03.667Z,17.60
2018-02-24T02:14:35.398Z,16.00
2018-02-24T02:15:07.143Z,14.50
2018-02-24T02:15:38.880Z,13.10
2018-02-24T02:16:10.612Z,12.10
2018-02-24T02:16:43.103Z,9.60
2018-02-24T02:17:14.833Z,9.50
2018-02-24T02:17:47.334Z,8.10
2018-02-24T02:18:19.044Z,8.20
2018-02-24T02:18:50.786Z,8.00
2018-02-24T02:19:22.517Z,7.90
2018-02-24T02:19:55.060Z,7.80
2018-02-24T02:20:26.860Z,7.80
2018-02-24T02:20:58.571Z,7.70
2018-02-24T02:21:31.108Z,7.60
2018-02-24T02:22:02.839Z,7.60
2018-02-24T02:22:34.567Z,7.60
2018-02-24T02:23:06.306Z,7.50
2018-02-24T02:23:38.036Z,7.50
2018-02-24T02:24:09.780Z,7.40
2018-02-24T02:24:41.543Z,7.30
2018-02-24T02:25:13.273Z,7.30
2018-02-24T02:25:45.036Z,7.30
2018-02-24T02:26:16.767Z,7.20
2018-02-24T02:26:48.492Z,6.90
2018-02-24T02:27:20.244Z,6.80
2018-02-24T02:27:51.984Z,6.70
2018-02-24T02:28:23.733Z,6.60
2018-02-24T02:28:55.467Z,6.50
2018-02-24T02:29:27.243Z,6.30
2018-02-24T02:29:58.972Z,6.20
2018-02-24T02:30:30.721Z,6.30
2018-02-24T02:31:02.449Z,6.30
2018-02-24T02:31:34.193Z,6.50
2018-02-24T02:32:05.923Z,6.40
2018-02-24T02:32:37.682Z,6.30
2018-02-24T02:33:09.424Z,6.20
2018-02-24T02:33:41.178Z,6.10
2018-02-24T02:34:12.932Z,6.10
2018-02-24T02:34:44.655Z,6.10
2018-02-24T02:35:16.405Z,6.20
2018-02-24T02:35:48.131Z,6.30
2018-02-24T02:36:20.636Z,6.60
2018-02-24T02:36:52.361Z,6.50
2018-02-24T02:37:24.096Z,6.50
2018-02-24T02:37:55.819Z,6.40
2018-02-24T02:38:28.321Z,6.10
2018-02-24T02:39:00.053Z,6.00
2018-02-24T02:39:31.792Z,5.70
2018-02-24T02:40:03.567Z,5.70
2018-02-24T02:40:35.275Z,5.50
2018-02-24T02:41:07.017Z,5.50
2018-02-24T02:41:38.772Z,5.60
2018-02-24T02:42:10.485Z,5.70
2018-02-24T02:42:42.989Z,5.60
2018-02-24T02:43:14.708Z,5.60
2018-02-24T02:43:46.465Z,5.50
2018-02-24T02:44:18.177Z,5.70
2018-02-24T02:44:50.706Z,6.60
2018-02-24T02:45:22.492Z,6.60
2018-02-24T02:45:54.996Z,7.70
2018-02-24T02:46:26.772Z,7.70
2018-02-24T02:46:58.504Z,8.20
2018-02-24T02:47:30.487Z,8.60
2018-02-24T02:48:02.197Z,9.00
2018-02-24T02:48:33.940Z,9.50
2018-02-24T02:49:05.698Z,9.80
2018-02-24T02:49:37.438Z,10.20
2018-02-24T02:50:09.170Z,10.50
2018-02-24T02:50:40.904Z,10.70
2018-02-24T02:51:12.638Z,11.00
2018-02-24T02:51:44.382Z,11.20
2018-02-24T02:52:16.136Z,11.40
2018-02-24T02:52:47.877Z,11.60
2018-02-24T02:53:19.614Z,11.70
2018-02-24T02:53:51.364Z,11.80
2018-02-24T02:54:23.096Z,12.00
2018-02-24T02:54:54.828Z,12.00
2018-02-24T02:55:26.578Z,12.10
2018-02-24T02:55:58.324Z,12.10
2018-02-24T02:56:30.050Z,12.20
2018-02-24T02:57:02.550Z,12.20
2018-02-24T02:57:34.273Z,12.20
2018-02-24T02:58:06.032Z,12.30
2018-02-24T02:58:37.777Z,12.30
2018-02-24T02:59:09.525Z,12.40
2018-02-24T02:59:41.240Z,12.40
2018-02-24T03:00:12.996Z,12.40
2018-02-24T03:00:44.732Z,12.40
2018-02-24T03:01:16.474Z,12.50
2018-02-24T03:01:48.980Z,12.50
2018-02-24T03:02:20.728Z,12.50
2018-02-24T03:02:52.466Z,12.60
2018-02-24T03:03:24.207Z,12.80
2018-02-24T03:03:55.959Z,13.00
2018-02-24T03:04:27.706Z,13.20
2018-02-24T03:04:59.698Z,13.40
2018-02-24T03:05:31.416Z,13.60
2018-02-24T03:06:03.153Z,13.80
2018-02-24T03:06:34.880Z,13.90
2018-02-24T03:07:06.611Z,14.10
2018-02-24T03:07:38.355Z,14.30
2018-02-24T03:08:10.076Z,14.40
2018-02-24T03:08:41.833Z,14.50
2018-02-24T03:09:13.559Z,14.60
2018-02-24T03:09:45.317Z,14.70
2018-02-24T03:10:17.081Z,14.80
2018-02-24T03:10:48.848Z,14.90
2018-02-24T03:11:20.677Z,14.90
2018-02-24T03:11:52.387Z,15.00
2018-02-24T03:12:24.149Z,15.10
2018-02-24T03:12:55.899Z,15.10
2018-02-24T03:13:27.622Z,15.20
2018-02-24T03:13:59.378Z,15.20
2018-02-24T03:14:31.116Z,15.30
2018-02-24T03:15:02.860Z,15.30
2018-02-24T03:15:34.619Z,15.40
2018-02-24T03:16:06.377Z,15.40
2018-02-24T03:16:38.135Z,15.40
2018-02-24T03:17:09.854Z,15.50
2018-02-24T03:17:41.582Z,15.50
2018-02-24T03:18:13.320Z,15.50
2018-02-24T03:18:45.059Z,15.60
2018-02-24T03:19:16.794Z,15.60
2018-02-24T03:19:49.311Z,15.60
2018-02-24T03:20:21.051Z,15.60
2018-02-24T03:20:52.780Z,15.60
2018-02-24T03:21:24.504Z,15.70
2018-02-24T03:21:56.256Z,15.70
2018-02-24T03:22:28.000Z,15.70
2018-02-24T03:22:59.769Z,15.70
2018-02-24T03:23:31.524Z,15.70
2018-02-24T03:24:03.240Z,15.80
2018-02-24T03:24:34.971Z,15.80
2018-02-24T03:25:06.716Z,15.80
2018-02-24T03:25:38.448Z,15.80
2018-02-24T03:26:10.951Z,15.80
2018-02-24T03:26:42.678Z,15.80
2018-02-24T03:27:14.415Z,15.90
2018-02-24T03:27:46.150Z,15.90
2018-02-24T03:28:18.644Z,15.90
2018-02-24T03:28:50.375Z,15.90
2018-02-24T03:29:22.120Z,15.90
2018-02-24T03:29:53.872Z,15.90
2018-02-24T03:30:25.588Z,15.90
2018-02-24T03:30:58.089Z,16.00
2018-02-24T03:31:29.851Z,16.00
2018-02-24T03:32:01.544Z,16.00
2018-02-24T03:32:33.284Z,16.00
2018-02-24T03:33:05.021Z,16.00
2018-02-24T03:33:37.521Z,16.00
2018-02-24T03:34:09.237Z,16.00
2018-02-24T03:34:41.032Z,16.00
2018-02-24T03:35:12.721Z,16.00
2018-02-24T03:35:44.467Z,16.10
2018-02-24T03:36:16.204Z,16.10
2018-02-24T03:36:48.708Z,16.10
2018-02-24T03:37:20.653Z,16.10
2018-02-24T03:37:53.118Z,16.10
2018-02-24T03:38:24.836Z,16.10
2018-02-24T03:38:56.589Z,16.10
2018-02-24T03:39:28.316Z,16.10
2018-02-24T03:40:00.070Z,16.10
2018-02-24T03:40:31.802Z,16.10
2018-02-24T03:41:04.296Z,16.10
2018-02-24T03:41:36.025Z,16.10
2018-02-24T03:42:07.756Z,16.10
2018-02-24T03:42:39.515Z,16.10
2018-02-24T03:43:11.236Z,16.20
2018-02-24T03:43:43.732Z,16.20
2018-02-24T03:44:15.511Z,16.20
2018-02-24T03:44:47.244Z,16.20
2018-02-24T03:45:18.989Z,16.20
2018-02-24T03:45:50.729Z,16.20
2018-02-24T03:46:22.474Z,16.20
2018-02-24T03:46:54.209Z,16.20
2018-02-24T03:47:25.941Z,16.20
2018-02-24T03:47:57.657Z,16.20
2018-02-24T03:48:29.391Z,16.30
2018-02-24T03:49:01.888Z,16.20
2018-02-24T03:49:33.611Z,16.20
2018-02-24T03:50:05.387Z,16.20
2018-02-24T03:50:37.096Z,16.20
2018-02-24T03:51:08.833Z,16.20
2018-02-24T03:51:41.325Z,16.30
2018-02-24T03:52:13.056Z,16.30
2018-02-24T03:52:44.781Z,16.30
2018-02-24T03:53:17.281Z,16.30
2018-02-24T03:53:49.021Z,16.30
2018-02-24T03:54:20.745Z,16.30
2018-02-24T03:54:52.485Z,16.30
2018-02-24T03:55:24.219Z,16.30
2018-02-24T03:55:56.736Z,16.30
2018-02-24T03:56:28.484Z,16.30
2018-02-24T03:57:00.231Z,16.30
2018-02-24T03:57:31.956Z,16.30
2018-02-24T03:58:03.693Z,16.40
2018-02-24T03:58:35.421Z,16.40
2018-02-24T03:59:07.174Z,16.40
2018-02-24T03:59:38.897Z,16.40
2018-02-24T04:00:11.468Z,16.40
2018-02-24T04:00:43.292Z,16.40
2018-02-24T04:01:15.023Z,16.40
2018-02-24T04:01:46.930Z,16.40
2018-02-24T04:02:19.389Z,16.50
2018-02-24T04:02:51.193Z,16.40
2018-02-24T04:03:22.892Z,16.50
2018-02-24T04:03:54.625Z,16.40
2018-02-24T04:04:26.387Z,16.50
2018-02-24T04:04:58.140Z,16.40
2018-02-24T04:05:29.873Z,16.50
2018-02-24T04:06:01.677Z,16.50
2018-02-24T04:06:33.424Z,16.50
2018-02-24T04:07:05.164Z,16.50
2018-02-24T04:07:37.659Z,16.50
2018-02-24T04:08:09.503Z,16.50
2018-02-24T04:08:41.960Z,16.50
2018-02-24T04:09:13.681Z,16.50
2018-02-24T04:09:45.410Z,16.50
2018-02-24T04:10:17.916Z,16.50
2018-02-24T04:10:49.645Z,16.50
2018-02-24T04:11:21.392Z,16.50
2018-02-24T04:11:53.124Z,16.50
2018-02-24T04:12:24.873Z,16.50
2018-02-24T04:12:56.630Z,16.50
2018-02-24T04:13:28.378Z,16.60
2018-02-24T04:14:00.100Z,16.50
2018-02-24T04:14:31.824Z,16.60
2018-02-24T04:15:04.332Z,16.60
2018-02-24T04:15:36.066Z,16.50
2018-02-24T04:16:07.837Z,16.60
2018-02-24T04:16:39.561Z,16.60
2018-02-24T04:17:11.302Z,16.60
2018-02-24T04:17:43.025Z,16.60
2018-02-24T04:18:14.752Z,16.60
2018-02-24T04:18:46.496Z,16.60
2018-02-24T04:19:18.993Z,16.60
2018-02-24T04:19:50.728Z,16.60
2018-02-24T04:20:22.452Z,16.60
2018-02-24T04:20:54.958Z,16.60
2018-02-24T04:21:26.738Z,16.60
2018-02-24T04:21:58.459Z,16.60
2018-02-24T04:22:30.278Z,16.70
2018-02-24T04:23:02.028Z,16.70
2018-02-24T04:23:33.727Z,16.70
2018-02-24T04:24:06.225Z,16.70
2018-02-24T04:24:37.971Z,16.60
2018-02-24T04:25:09.707Z,16.70
2018-02-24T04:25:41.453Z,16.70
2018-02-24T04:26:13.179Z,16.70
2018-02-24T04:26:44.920Z,16.60
2018-02-24T04:27:17.412Z,16.70
2018-02-24T04:27:49.133Z,16.70
2018-02-24T04:28:20.888Z,16.70
2018-02-24T04:28:52.607Z,16.70
2018-02-24T04:29:25.105Z,16.70
2018-02-24T04:29:56.839Z,16.70
2018-02-24T04:30:28.571Z,16.80
2018-02-24T04:31:01.071Z,16.80
2018-02-24T04:31:32.814Z,16.80
2018-02-24T04:32:04.563Z,16.80
2018-02-24T04:32:36.382Z,16.80
2018-02-24T04:33:08.832Z,16.80
2018-02-24T04:33:40.560Z,16.70
2018-02-24T04:34:13.061Z,16.80
2018-02-24T04:34:44.781Z,16.80
2018-02-24T04:35:16.517Z,16.80
2018-02-24T04:35:49.028Z,16.80
2018-02-24T04:36:20.748Z,16.70
2018-02-24T04:36:52.484Z,16.80
2018-02-24T04:37:24.234Z,16.80
2018-02-24T04:37:55.960Z,16.80
2018-02-24T04:38:27.706Z,16.80
2018-02-24T04:39:00.208Z,16.80
2018-02-24T04:39:31.960Z,16.80
2018-02-24T04:40:03.714Z,16.80
2018-02-24T04:40:35.528Z,16.80
2018-02-24T04:41:08.025Z,16.80
2018-02-24T04:41:39.763Z,16.80
2018-02-24T04:42:11.507Z,16.80
2018-02-24T04:42:43.286Z,16.80
2018-02-24T04:43:15.039Z,16.80
2018-02-24T04:43:47.532Z,16.80
2018-02-24T04:44:19.305Z,16.80
2018-02-24T04:44:51.058Z,16.80
2018-02-24T04:45:22.816Z,16.80
2018-02-24T04:45:54.547Z,16.80
2018-02-24T04:46:26.292Z,16.80
2018-02-24T04:46:58.015Z,16.80
2018-02-24T04:47:29.759Z,16.80
2018-02-24T04:48:01.495Z,16.80
2018-02-24T04:48:33.207Z,16.80
2018-02-24T04:49:04.950Z,16.80
2018-02-24T04:49:36.670Z,16.80
2018-02-24T04:50:09.167Z,16.90
2018-02-24T04:50:40.907Z,16.80
2018-02-24T04:51:12.675Z,16.80
2018-02-24T04:51:44.395Z,16.80
2018-02-24T04:52:16.132Z,16.90
2018-02-24T04:52:47.875Z,16.90
2018-02-24T04:53:19.604Z,16.90
2018-02-24T04:53:52.112Z,16.90
2018-02-24T04:54:23.932Z,16.90
2018-02-24T04:54:56.491Z,16.90
2018-02-24T04:55:28.197Z,16.90
2018-02-24T04:55:59.940Z,16.90
2018-02-24T04:56:31.676Z,16.90
2018-02-24T04:57:03.579Z,16.90
2018-02-24T04:57:36.064Z,16.90
2018-02-24T04:58:07.834Z,16.90
2018-02-24T04:58:39.565Z,16.90
2018-02-24T04:59:11.304Z,16.90
2018-02-24T04:59:43.055Z,16.90
2018-02-24T05:00:14.830Z,16.90
2018-02-24T05:00:46.704Z,16.90
2018-02-24T05:01:18.452Z,16.90
2018-02-24T05:01:50.180Z,16.90
2018-02-24T05:02:22.689Z,16.90
2018-02-24T05:02:54.418Z,16.90
2018-02-24T05:03:26.177Z,16.90
2018-02-24T05:03:57.885Z,16.90
2018-02-24T05:04:29.682Z,16.90
2018-02-24T05:05:01.433Z,16.90
2018-02-24T05:05:33.224Z,16.90
2018-02-24T05:06:05.710Z,17.00
2018-02-24T05:06:37.436Z,16.90
2018-02-24T05:07:09.167Z,17.00
2018-02-24T05:07:41.692Z,17.00
2018-02-24T05:08:13.441Z,16.90
2018-02-24T05:08:45.176Z,17.00
2018-02-24T05:09:16.940Z,17.00
2018-02-24T05:09:48.665Z,17.00
2018-02-24T05:10:20.410Z,17.00
2018-02-24T05:10:52.164Z,17.00
2018-02-24T05:11:23.918Z,17.00
2018-02-24T05:11:55.644Z,17.00
2018-02-24T05:12:27.385Z,17.00
2018-02-24T05:12:59.125Z,17.00
2018-02-24T05:13:30.956Z,17.00
2018-02-24T05:14:02.663Z,17.00
2018-02-24T05:14:35.177Z,17.00
2018-02-24T05:15:06.909Z,17.00
2018-02-24T05:15:38.645Z,17.00
2018-02-24T05:16:10.381Z,17.00
2018-02-24T05:16:42.109Z,17.00
2018-02-24T05:17:13.862Z,17.00
2018-02-24T05:17:45.592Z,17.00
2018-02-24T05:18:18.095Z,17.00
2018-02-24T05:18:49.832Z,17.00
2018-02-24T05:19:21.549Z,17.00
2018-02-24T05:19:53.272Z,17.00
2018-02-24T05:20:25.778Z,17.00
2018-02-24T05:20:57.575Z,17.00
2018-02-24T05:21:30.082Z,17.00
2018-02-24T05:22:01.834Z,17.10
2018-02-24T05:22:33.563Z,17.00
2018-02-24T05:23:05.313Z,17.00
2018-02-24T05:23:37.055Z,17.00
2018-02-24T05:24:08.796Z,17.10
2018-02-24T05:24:40.529Z,17.10
2018-02-24T05:25:12.271Z,17.10
2018-02-24T05:25:44.002Z,17.10
2018-02-24T05:26:16.533Z,17.10
2018-02-24T05:26:48.262Z,17.10
2018-02-24T05:27:20.016Z,17.10
2018-02-24T05:27:51.797Z,17.10
2018-02-24T05:28:24.292Z,17.10
2018-02-24T05:28:56.053Z,17.00
2018-02-24T05:29:27.791Z,17.10
2018-02-24T05:29:59.534Z,17.10
2018-02-24T05:30:31.272Z,17.10
2018-02-24T05:31:03.011Z,17.10
2018-02-24T05:31:34.744Z,17.10
2018-02-24T05:32:06.500Z,17.10
2018-02-24T05:32:38.255Z,17.10
2018-02-24T05:33:09.972Z,17.10
2018-02-24T05:33:41.711Z,17.10
2018-02-24T05:34:13.465Z,17.10
2018-02-24T05:34:45.215Z,17.10
2018-02-24T05:35:16.967Z,17.10
2018-02-24T05:35:48.719Z,17.10
2018-02-24T05:36:20.449Z,17.10
2018-02-24T05:36:52.197Z,17.10
2018-02-24T05:37:23.954Z,17.10
2018-02-24T05:37:55.688Z,17.10
2018-02-24T05:38:27.408Z,17.10
2018-02-24T05:38:59.907Z,17.10
2018-02-24T05:39:31.646Z,17.10
2018-02-24T05:40:03.372Z,17.20
2018-02-24T05:40:35.123Z,17.10
2018-02-24T05:41:06.847Z,17.10
2018-02-24T05:41:39.361Z,17.10
2018-02-24T05:42:11.075Z,17.10
2018-02-24T05:42:42.808Z,17.10
2018-02-24T05:43:14.559Z,17.10
2018-02-24T05:43:46.293Z,17.10
2018-02-24T05:44:18.042Z,17.10
2018-02-24T05:44:49.793Z,17.20
2018-02-24T05:45:21.533Z,17.10
2018-02-24T05:45:53.262Z,17.10
2018-02-24T05:46:25.779Z,17.10
2018-02-24T05:46:57.544Z,17.10
2018-02-24T05:47:29.329Z,17.10
2018-02-24T05:48:01.021Z,17.10
2018-02-24T05:48:32.756Z,17.10
2018-02-24T05:49:04.507Z,17.10
2018-02-24T05:49:36.238Z,17.10
2018-02-24T05:50:07.973Z,17.10
2018-02-24T05:50:39.703Z,17.10
2018-02-24T05:51:11.436Z,17.10
2018-02-24T05:51:43.181Z,17.10
2018-02-24T05:52:14.939Z,17.10
2018-02-24T05:52:46.734Z,17.10
2018-02-24T05:53:18.490Z,17.10
2018-02-24T05:53:50.233Z,17.20
2018-02-24T05:54:21.990Z,17.10
2018-02-24T05:54:54.463Z,17.10
2018-02-24T05:55:26.218Z,17.10
2018-02-24T05:55:57.961Z,17.20
2018-02-24T05:56:29.771Z,17.10
2018-02-24T05:57:01.518Z,17.20
2018-02-24T05:57:33.262Z,17.20
2018-02-24T05:58:04.991Z,17.20
2018-02-24T05:58:36.731Z,17.20
2018-02-24T05:59:08.479Z,17.20
2018-02-24T05:59:40.211Z,17.10
2018-02-24T06:00:12.001Z,17.10
2018-02-24T06:00:44.499Z,17.20
2018-02-24T06:01:16.225Z,17.10
2018-02-24T06:01:47.961Z,17.20
2018-02-24T06:02:19.687Z,17.20
2018-02-24T06:02:52.190Z,17.20
2018-02-24T06:03:23.923Z,17.20
2018-02-24T06:03:55.651Z,17.20
2018-02-24T06:04:27.401Z,17.20
2018-02-24T06:04:59.124Z,17.20
2018-02-24T06:05:31.620Z,17.20
2018-02-24T06:06:03.373Z,17.10
2018-02-24T06:06:35.103Z,17.20
2018-02-24T06:07:06.817Z,17.20
2018-02-24T06:07:39.347Z,17.20
2018-02-24T06:08:11.080Z,17.20
2018-02-24T06:08:42.821Z,17.20
2018-02-24T06:09:14.548Z,17.20
2018-02-24T06:09:46.269Z,17.20
2018-02-24T06:10:17.997Z,17.20
2018-02-24T06:10:50.496Z,17.20
2018-02-24T06:11:22.231Z,17.20
2018-02-24T06:11:53.962Z,17.20
2018-02-24T06:12:26.465Z,17.20
2018-02-24T06:12:58.263Z,17.20
2018-02-24T06:13:29.999Z,17.20
2018-02-24T06:14:01.708Z,17.30
2018-02-24T06:14:33.453Z,17.30
2018-02-24T06:15:05.333Z,17.30
2018-02-24T06:15:37.053Z,17.30
2018-02-24T06:16:08.817Z,17.30
2018-02-24T06:16:40.545Z,17.30
2018-02-24T06:17:12.277Z,17.30
2018-02-24T06:17:44.010Z,17.30
2018-02-24T06:18:15.732Z,17.30
2018-02-24T06:18:47.517Z,17.30
2018-02-24T06:19:19.246Z,17.30
2018-02-24T06:19:50.977Z,17.30
2018-02-24T06:20:22.703Z,17.30
2018-02-24T06:20:54.455Z,17.30
2018-02-24T06:21:26.241Z,17.30
2018-02-24T06:21:58.001Z,17.30
2018-02-24T06:22:29.754Z,17.30
2018-02-24T06:23:01.533Z,17.30
2018-02-24T06:23:33.997Z,17.20
2018-02-24T06:24:05.736Z,17.20
2018-02-24T06:24:37.476Z,17.30
2018-02-24T06:25:09.204Z,17.30
2018-02-24T06:25:41.709Z,17.30
2018-02-24T06:26:13.484Z,17.30
2018-02-24T06:26:45.220Z,17.30
2018-02-24T06:27:16.977Z,17.30
2018-02-24T06:27:48.710Z,17.30
2018-02-24T06:28:20.428Z,17.30
2018-02-24T06:28:52.182Z,17.30
2018-02-24T06:29:23.905Z,17.30
2018-02-24T06:29:55.644Z,17.30
2018-02-24T06:30:27.381Z,17.30
2018-02-24T06:30:59.124Z,17.30
2018-02-24T06:31:31.608Z,17.30
2018-02-24T06:32:03.340Z,17.30
2018-02-24T06:32:35.076Z,17.30
2018-02-24T06:33:06.816Z,17.30
2018-02-24T06:33:38.554Z,17.30
2018-02-24T06:34:10.342Z,17.30
2018-02-24T06:34:42.805Z,17.30
2018-02-24T06:35:14.539Z,17.30
2018-02-24T06:35:46.267Z,17.30
2018-02-24T06:36:17.996Z,17.30
2018-02-24T06:36:49.729Z,17.30
2018-02-24T06:37:22.219Z,17.30
2018-02-24T06:37:53.952Z,17.30
2018-02-24T06:38:25.689Z,17.30
2018-02-24T06:38:57.416Z,17.30
2018-02-24T06:39:29.912Z,17.30
2018-02-24T06:40:01.640Z,17.30
2018-02-24T06:40:33.383Z,17.30
2018-02-24T06:41:05.859Z,17.30
2018-02-24T06:41:37.583Z,17.30
2018-02-24T06:42:09.336Z,17.30
2018-02-24T06:42:41.072Z,17.30
2018-02-24T06:43:13.564Z,17.30
2018-02-24T06:43:45.343Z,17.30
2018-02-24T06:44:17.065Z,17.30
2018-02-24T06:44:48.796Z,17.30
2018-02-24T06:45:20.538Z,17.30
2018-02-24T06:45:52.264Z,17.30
2018-02-24T06:46:23.986Z,17.30
2018-02-24T06:46:56.495Z,17.30
2018-02-24T06:47:28.214Z,17.30
2018-02-24T06:47:59.949Z,17.30
2018-02-24T06:48:32.450Z,17.30
2018-02-24T06:49:04.180Z,17.30
2018-02-24T06:49:35.917Z,17.30
2018-02-24T06:50:07.652Z,17.30
2018-02-24T06:50:39.374Z,17.30
2018-02-24T06:51:11.887Z,17.30